sensor_id;sensor_type;location;lat;lon;timestamp;P1;durP1;ratioP1;P2;durP2;ratioP2
50350;SDS011;36250;48.740;22.174;2024-01-25T00:01:57;79.30;;;36.63;;
50350;SDS011;36250;48.740;22.174;2024-01-25T00:04:22;70.53;;;36.50;;
50350;SDS011;36250;48.740;22.174;2024-01-25T00:06:47;83.75;;;37.70;;
50350;SDS011;36250;48.740;22.174;2024-01-25T00:09:13;79.15;;;36.50;;
50350;SDS011;36250;48.740;22.174;2024-01-25T00:11:38;92.40;;;41.30;;
50350;SDS011;36250;48.740;22.174;2024-01-25T00:14:03;76.20;;;34.40;;
50350;SDS011;36250;48.740;22.174;2024-01-25T00:16:29;83.15;;;37.83;;
50350;SDS011;36250;48.740;22.174;2024-01-25T00:18:55;79.18;;;33.50;;
50350;SDS011;36250;48.740;22.174;2024-01-25T00:21:20;72.55;;;34.67;;
50350;SDS011;36250;48.740;22.174;2024-01-25T00:23:45;63.22;;;31.38;;
50350;SDS011;36250;48.740;22.174;2024-01-25T00:26:11;76.70;;;35.13;;
50350;SDS011;36250;48.740;22.174;2024-01-25T00:28:36;79.35;;;35.50;;
50350;SDS011;36250;48.740;22.174;2024-01-25T00:31:01;74.28;;;34.67;;
50350;SDS011;36250;48.740;22.174;2024-01-25T00:33:27;75.47;;;33.65;;
50350;SDS011;36250;48.740;22.174;2024-01-25T00:35:52;75.85;;;35.08;;
50350;SDS011;36250;48.740;22.174;2024-01-25T00:38:18;77.93;;;33.47;;
50350;SDS011;36250;48.740;22.174;2024-01-25T00:40:45;70.72;;;35.08;;
50350;SDS011;36250;48.740;22.174;2024-01-25T00:43:10;72.07;;;36.08;;
50350;SDS011;36250;48.740;22.174;2024-01-25T00:45:36;87.45;;;41.25;;
50350;SDS011;36250;48.740;22.174;2024-01-25T00:48:02;81.15;;;37.38;;
50350;SDS011;36250;48.740;22.174;2024-01-25T00:50:28;77.38;;;36.20;;
50350;SDS011;36250;48.740;22.174;2024-01-25T00:52:53;98.18;;;40.35;;
50350;SDS011;36250;48.740;22.174;2024-01-25T00:55:19;81.05;;;36.70;;
50350;SDS011;36250;48.740;22.174;2024-01-25T00:57:45;82.13;;;38.55;;
50350;SDS011;36250;48.740;22.174;2024-01-25T01:00:11;84.15;;;36.55;;
50350;SDS011;36250;48.740;22.174;2024-01-25T01:02:42;87.97;;;38.80;;
50350;SDS011;36250;48.740;22.174;2024-01-25T01:05:09;92.63;;;40.93;;
50350;SDS011;36250;48.740;22.174;2024-01-25T01:07:35;83.60;;;34.75;;
50350;SDS011;36250;48.740;22.174;2024-01-25T01:10:00;111.78;;;45.83;;
50350;SDS011;36250;48.740;22.174;2024-01-25T01:12:26;110.90;;;46.47;;
50350;SDS011;36250;48.740;22.174;2024-01-25T01:14:51;104.90;;;42.47;;
50350;SDS011;36250;48.740;22.174;2024-01-25T01:17:17;101.93;;;38.20;;
50350;SDS011;36250;48.740;22.174;2024-01-25T01:19:43;99.25;;;39.92;;
50350;SDS011;36250;48.740;22.174;2024-01-25T01:22:09;110.25;;;41.47;;
50350;SDS011;36250;48.740;22.174;2024-01-25T01:24:34;96.80;;;41.80;;
50350;SDS011;36250;48.740;22.174;2024-01-25T01:27:00;101.40;;;39.03;;
50350;SDS011;36250;48.740;22.174;2024-01-25T01:29:25;97.40;;;38.80;;
50350;SDS011;36250;48.740;22.174;2024-01-25T01:31:50;93.45;;;40.40;;
50350;SDS011;36250;48.740;22.174;2024-01-25T01:34:16;99.32;;;41.35;;
50350;SDS011;36250;48.740;22.174;2024-01-25T01:36:42;106.07;;;40.13;;
50350;SDS011;36250;48.740;22.174;2024-01-25T01:39:08;99.07;;;41.15;;
50350;SDS011;36250;48.740;22.174;2024-01-25T01:41:34;104.80;;;40.90;;
50350;SDS011;36250;48.740;22.174;2024-01-25T01:43:59;109.78;;;39.05;;
50350;SDS011;36250;48.740;22.174;2024-01-25T01:46:32;102.95;;;42.60;;
50350;SDS011;36250;48.740;22.174;2024-01-25T01:49:00;101.47;;;39.70;;
50350;SDS011;36250;48.740;22.174;2024-01-25T01:51:26;106.78;;;39.53;;
50350;SDS011;36250;48.740;22.174;2024-01-25T01:53:53;94.40;;;38.67;;
50350;SDS011;36250;48.740;22.174;2024-01-25T01:56:19;92.32;;;38.95;;
50350;SDS011;36250;48.740;22.174;2024-01-25T01:58:45;95.63;;;41.90;;
50350;SDS011;36250;48.740;22.174;2024-01-25T02:01:13;111.65;;;42.50;;
50350;SDS011;36250;48.740;22.174;2024-01-25T02:03:38;109.20;;;44.50;;
50350;SDS011;36250;48.740;22.174;2024-01-25T02:06:03;146.93;;;48.05;;
50350;SDS011;36250;48.740;22.174;2024-01-25T02:08:29;131.68;;;48.05;;
50350;SDS011;36250;48.740;22.174;2024-01-25T02:10:55;116.50;;;45.03;;
50350;SDS011;36250;48.740;22.174;2024-01-25T02:13:21;120.72;;;46.22;;
50350;SDS011;36250;48.740;22.174;2024-01-25T02:15:47;127.45;;;47.90;;
50350;SDS011;36250;48.740;22.174;2024-01-25T02:18:12;110.07;;;44.33;;
50350;SDS011;36250;48.740;22.174;2024-01-25T02:20:38;106.32;;;39.55;;
50350;SDS011;36250;48.740;22.174;2024-01-25T02:23:03;105.97;;;41.33;;
50350;SDS011;36250;48.740;22.174;2024-01-25T02:25:29;101.95;;;38.97;;
50350;SDS011;36250;48.740;22.174;2024-01-25T02:27:54;105.38;;;40.15;;
50350;SDS011;36250;48.740;22.174;2024-01-25T02:30:19;103.07;;;40.95;;
50350;SDS011;36250;48.740;22.174;2024-01-25T02:32:45;85.93;;;36.95;;
50350;SDS011;36250;48.740;22.174;2024-01-25T02:35:10;95.35;;;39.15;;
50350;SDS011;36250;48.740;22.174;2024-01-25T02:37:35;88.93;;;37.42;;
50350;SDS011;36250;48.740;22.174;2024-01-25T02:40:01;93.65;;;37.38;;
50350;SDS011;36250;48.740;22.174;2024-01-25T02:42:26;93.05;;;39.10;;
50350;SDS011;36250;48.740;22.174;2024-01-25T02:44:51;97.78;;;37.85;;
50350;SDS011;36250;48.740;22.174;2024-01-25T02:47:17;102.20;;;38.13;;
50350;SDS011;36250;48.740;22.174;2024-01-25T02:49:42;99.72;;;37.83;;
50350;SDS011;36250;48.740;22.174;2024-01-25T02:52:08;93.82;;;40.92;;
50350;SDS011;36250;48.740;22.174;2024-01-25T02:54:36;86.18;;;35.97;;
50350;SDS011;36250;48.740;22.174;2024-01-25T02:57:02;105.80;;;42.08;;
50350;SDS011;36250;48.740;22.174;2024-01-25T02:59:27;103.75;;;38.17;;
50350;SDS011;36250;48.740;22.174;2024-01-25T03:01:53;101.82;;;37.83;;
50350;SDS011;36250;48.740;22.174;2024-01-25T03:04:19;100.90;;;38.95;;
50350;SDS011;36250;48.740;22.174;2024-01-25T03:06:45;102.68;;;38.00;;
50350;SDS011;36250;48.740;22.174;2024-01-25T03:09:10;89.78;;;39.97;;
50350;SDS011;36250;48.740;22.174;2024-01-25T03:11:35;99.82;;;39.40;;
50350;SDS011;36250;48.740;22.174;2024-01-25T03:14:01;97.13;;;39.47;;
50350;SDS011;36250;48.740;22.174;2024-01-25T03:16:26;91.30;;;37.00;;
50350;SDS011;36250;48.740;22.174;2024-01-25T03:18:51;101.75;;;41.95;;
50350;SDS011;36250;48.740;22.174;2024-01-25T03:21:17;94.43;;;39.13;;
50350;SDS011;36250;48.740;22.174;2024-01-25T03:23:42;88.38;;;37.28;;
50350;SDS011;36250;48.740;22.174;2024-01-25T03:26:08;98.78;;;38.83;;
50350;SDS011;36250;48.740;22.174;2024-01-25T03:28:36;103.32;;;37.97;;
50350;SDS011;36250;48.740;22.174;2024-01-25T03:31:02;97.32;;;41.97;;
50350;SDS011;36250;48.740;22.174;2024-01-25T03:33:27;104.32;;;40.28;;
50350;SDS011;36250;48.740;22.174;2024-01-25T03:35:53;127.47;;;39.67;;
50350;SDS011;36250;48.740;22.174;2024-01-25T03:38:19;118.03;;;39.55;;
50350;SDS011;36250;48.740;22.174;2024-01-25T03:40:45;101.88;;;37.20;;
50350;SDS011;36250;48.740;22.174;2024-01-25T03:43:10;114.30;;;41.80;;
50350;SDS011;36250;48.740;22.174;2024-01-25T03:45:35;99.72;;;36.92;;
50350;SDS011;36250;48.740;22.174;2024-01-25T03:48:00;114.32;;;39.10;;
50350;SDS011;36250;48.740;22.174;2024-01-25T03:50:26;101.55;;;37.97;;
50350;SDS011;36250;48.740;22.174;2024-01-25T03:52:52;116.45;;;38.60;;
50350;SDS011;36250;48.740;22.174;2024-01-25T03:55:17;84.28;;;34.63;;
50350;SDS011;36250;48.740;22.174;2024-01-25T03:57:44;108.75;;;37.75;;
50350;SDS011;36250;48.740;22.174;2024-01-25T04:00:10;97.32;;;37.00;;
50350;SDS011;36250;48.740;22.174;2024-01-25T04:02:36;91.47;;;35.25;;
50350;SDS011;36250;48.740;22.174;2024-01-25T04:05:01;89.85;;;37.40;;
50350;SDS011;36250;48.740;22.174;2024-01-25T04:07:27;81.82;;;33.88;;
50350;SDS011;36250;48.740;22.174;2024-01-25T04:09:52;92.45;;;35.55;;
50350;SDS011;36250;48.740;22.174;2024-01-25T04:12:18;94.35;;;37.47;;
50350;SDS011;36250;48.740;22.174;2024-01-25T04:14:43;92.75;;;37.28;;
50350;SDS011;36250;48.740;22.174;2024-01-25T04:17:09;108.90;;;39.22;;
50350;SDS011;36250;48.740;22.174;2024-01-25T04:19:35;92.63;;;35.88;;
50350;SDS011;36250;48.740;22.174;2024-01-25T04:22:00;88.18;;;36.78;;
50350;SDS011;36250;48.740;22.174;2024-01-25T04:24:26;102.50;;;40.10;;
50350;SDS011;36250;48.740;22.174;2024-01-25T04:26:51;111.88;;;42.58;;
50350;SDS011;36250;48.740;22.174;2024-01-25T04:29:17;105.18;;;43.75;;
50350;SDS011;36250;48.740;22.174;2024-01-25T04:31:42;125.28;;;47.80;;
50350;SDS011;36250;48.740;22.174;2024-01-25T04:34:09;115.30;;;41.65;;
50350;SDS011;36250;48.740;22.174;2024-01-25T04:36:35;97.28;;;41.80;;
50350;SDS011;36250;48.740;22.174;2024-01-25T04:39:01;116.80;;;46.45;;
50350;SDS011;36250;48.740;22.174;2024-01-25T04:41:26;143.85;;;53.45;;
50350;SDS011;36250;48.740;22.174;2024-01-25T04:43:51;107.97;;;40.47;;
50350;SDS011;36250;48.740;22.174;2024-01-25T04:46:17;119.60;;;43.70;;
50350;SDS011;36250;48.740;22.174;2024-01-25T04:48:42;101.72;;;36.90;;
50350;SDS011;36250;48.740;22.174;2024-01-25T04:51:07;109.00;;;40.30;;
50350;SDS011;36250;48.740;22.174;2024-01-25T04:53:33;95.45;;;37.55;;
50350;SDS011;36250;48.740;22.174;2024-01-25T04:55:58;102.15;;;38.97;;
50350;SDS011;36250;48.740;22.174;2024-01-25T04:58:24;103.50;;;39.78;;
50350;SDS011;36250;48.740;22.174;2024-01-25T05:00:50;147.20;;;47.40;;
50350;SDS011;36250;48.740;22.174;2024-01-25T05:03:17;115.10;;;43.15;;
50350;SDS011;36250;48.740;22.174;2024-01-25T05:05:43;113.03;;;41.70;;
50350;SDS011;36250;48.740;22.174;2024-01-25T05:08:08;120.07;;;43.28;;
50350;SDS011;36250;48.740;22.174;2024-01-25T05:10:33;125.75;;;45.92;;
50350;SDS011;36250;48.740;22.174;2024-01-25T05:12:59;100.22;;;40.78;;
50350;SDS011;36250;48.740;22.174;2024-01-25T05:15:24;102.72;;;40.35;;
50350;SDS011;36250;48.740;22.174;2024-01-25T05:17:49;105.38;;;43.03;;
50350;SDS011;36250;48.740;22.174;2024-01-25T05:20:15;118.45;;;42.70;;
50350;SDS011;36250;48.740;22.174;2024-01-25T05:22:42;103.28;;;39.20;;
50350;SDS011;36250;48.740;22.174;2024-01-25T05:25:08;114.93;;;45.08;;
50350;SDS011;36250;48.740;22.174;2024-01-25T05:27:33;124.63;;;44.72;;
50350;SDS011;36250;48.740;22.174;2024-01-25T05:29:59;127.55;;;47.33;;
50350;SDS011;36250;48.740;22.174;2024-01-25T05:32:24;134.43;;;47.28;;
50350;SDS011;36250;48.740;22.174;2024-01-25T05:34:50;143.75;;;51.22;;
50350;SDS011;36250;48.740;22.174;2024-01-25T05:37:15;140.20;;;48.20;;
50350;SDS011;36250;48.740;22.174;2024-01-25T05:39:40;125.60;;;46.83;;
50350;SDS011;36250;48.740;22.174;2024-01-25T05:42:06;173.88;;;55.78;;
50350;SDS011;36250;48.740;22.174;2024-01-25T05:44:31;150.15;;;47.53;;
50350;SDS011;36250;48.740;22.174;2024-01-25T05:46:56;169.50;;;55.70;;
50350;SDS011;36250;48.740;22.174;2024-01-25T05:49:22;155.32;;;52.88;;
50350;SDS011;36250;48.740;22.174;2024-01-25T05:51:47;148.55;;;51.65;;
50350;SDS011;36250;48.740;22.174;2024-01-25T05:54:12;150.77;;;49.88;;
50350;SDS011;36250;48.740;22.174;2024-01-25T05:56:38;167.57;;;56.55;;
50350;SDS011;36250;48.740;22.174;2024-01-25T05:59:03;140.40;;;49.28;;
50350;SDS011;36250;48.740;22.174;2024-01-25T06:01:28;144.40;;;52.70;;
50350;SDS011;36250;48.740;22.174;2024-01-25T06:03:54;126.07;;;48.38;;
50350;SDS011;36250;48.740;22.174;2024-01-25T06:06:19;132.85;;;47.33;;
50350;SDS011;36250;48.740;22.174;2024-01-25T06:08:45;134.75;;;48.75;;
50350;SDS011;36250;48.740;22.174;2024-01-25T06:11:10;141.70;;;49.05;;
50350;SDS011;36250;48.740;22.174;2024-01-25T06:13:36;146.68;;;51.17;;
50350;SDS011;36250;48.740;22.174;2024-01-25T06:16:01;164.30;;;56.53;;
50350;SDS011;36250;48.740;22.174;2024-01-25T06:18:27;161.15;;;55.65;;
50350;SDS011;36250;48.740;22.174;2024-01-25T06:20:52;173.02;;;62.28;;
50350;SDS011;36250;48.740;22.174;2024-01-25T06:23:18;172.02;;;70.03;;
50350;SDS011;36250;48.740;22.174;2024-01-25T06:25:43;148.68;;;57.42;;
50350;SDS011;36250;48.740;22.174;2024-01-25T06:28:08;163.43;;;61.15;;
50350;SDS011;36250;48.740;22.174;2024-01-25T06:30:34;132.48;;;56.50;;
50350;SDS011;36250;48.740;22.174;2024-01-25T06:32:59;159.45;;;60.08;;
50350;SDS011;36250;48.740;22.174;2024-01-25T06:35:24;148.45;;;60.08;;
50350;SDS011;36250;48.740;22.174;2024-01-25T06:37:50;173.32;;;61.95;;
50350;SDS011;36250;48.740;22.174;2024-01-25T06:40:15;163.32;;;58.42;;
50350;SDS011;36250;48.740;22.174;2024-01-25T06:42:41;153.00;;;54.60;;
50350;SDS011;36250;48.740;22.174;2024-01-25T06:45:07;226.80;;;57.47;;
50350;SDS011;36250;48.740;22.174;2024-01-25T06:47:33;168.40;;;46.90;;
50350;SDS011;36250;48.740;22.174;2024-01-25T06:49:58;136.35;;;43.33;;
50350;SDS011;36250;48.740;22.174;2024-01-25T06:52:24;186.30;;;47.28;;
50350;SDS011;36250;48.740;22.174;2024-01-25T06:54:49;137.82;;;45.47;;
50350;SDS011;36250;48.740;22.174;2024-01-25T06:57:14;178.75;;;52.53;;
50350;SDS011;36250;48.740;22.174;2024-01-25T06:59:40;179.00;;;48.67;;
50350;SDS011;36250;48.740;22.174;2024-01-25T07:02:05;184.05;;;54.92;;
50350;SDS011;36250;48.740;22.174;2024-01-25T07:04:31;189.75;;;62.75;;
50350;SDS011;36250;48.740;22.174;2024-01-25T07:06:56;198.77;;;58.63;;
50350;SDS011;36250;48.740;22.174;2024-01-25T07:09:21;140.38;;;50.60;;
50350;SDS011;36250;48.740;22.174;2024-01-25T07:11:47;167.05;;;53.67;;
50350;SDS011;36250;48.740;22.174;2024-01-25T07:14:12;161.13;;;46.22;;
50350;SDS011;36250;48.740;22.174;2024-01-25T07:16:37;181.73;;;48.63;;
50350;SDS011;36250;48.740;22.174;2024-01-25T07:19:03;356.88;;;57.17;;
50350;SDS011;36250;48.740;22.174;2024-01-25T07:21:28;264.73;;;55.38;;
50350;SDS011;36250;48.740;22.174;2024-01-25T07:23:59;228.80;;;59.50;;
50350;SDS011;36250;48.740;22.174;2024-01-25T07:26:26;212.77;;;61.42;;
50350;SDS011;36250;48.740;22.174;2024-01-25T07:28:51;220.90;;;67.03;;
50350;SDS011;36250;48.740;22.174;2024-01-25T07:31:21;321.85;;;72.15;;
50350;SDS011;36250;48.740;22.174;2024-01-25T07:33:47;385.70;;;74.32;;
50350;SDS011;36250;48.740;22.174;2024-01-25T07:36:12;323.58;;;70.15;;
50350;SDS011;36250;48.740;22.174;2024-01-25T07:38:37;213.68;;;61.53;;
50350;SDS011;36250;48.740;22.174;2024-01-25T07:41:03;236.43;;;61.97;;
50350;SDS011;36250;48.740;22.174;2024-01-25T07:43:28;311.60;;;57.88;;
50350;SDS011;36250;48.740;22.174;2024-01-25T07:45:54;423.88;;;61.53;;
50350;SDS011;36250;48.740;22.174;2024-01-25T07:48:19;253.82;;;52.78;;
50350;SDS011;36250;48.740;22.174;2024-01-25T07:50:44;331.55;;;60.97;;
50350;SDS011;36250;48.740;22.174;2024-01-25T07:53:10;328.25;;;59.25;;
50350;SDS011;36250;48.740;22.174;2024-01-25T07:55:37;251.93;;;52.40;;
50350;SDS011;36250;48.740;22.174;2024-01-25T07:58:02;188.07;;;46.80;;
50350;SDS011;36250;48.740;22.174;2024-01-25T08:00:27;336.17;;;57.38;;
50350;SDS011;36250;48.740;22.174;2024-01-25T08:02:53;263.67;;;52.65;;
50350;SDS011;36250;48.740;22.174;2024-01-25T08:05:18;237.77;;;49.47;;
50350;SDS011;36250;48.740;22.174;2024-01-25T08:07:44;307.05;;;53.00;;
50350;SDS011;36250;48.740;22.174;2024-01-25T08:10:10;362.23;;;56.38;;
50350;SDS011;36250;48.740;22.174;2024-01-25T08:12:35;335.08;;;53.25;;
50350;SDS011;36250;48.740;22.174;2024-01-25T08:15:01;169.30;;;46.60;;
50350;SDS011;36250;48.740;22.174;2024-01-25T08:17:26;247.35;;;53.20;;
50350;SDS011;36250;48.740;22.174;2024-01-25T08:19:51;198.38;;;50.55;;
50350;SDS011;36250;48.740;22.174;2024-01-25T08:22:17;212.52;;;55.85;;
50350;SDS011;36250;48.740;22.174;2024-01-25T08:24:42;237.30;;;56.33;;
50350;SDS011;36250;48.740;22.174;2024-01-25T08:27:08;337.10;;;61.80;;
50350;SDS011;36250;48.740;22.174;2024-01-25T08:29:34;392.23;;;60.70;;
50350;SDS011;36250;48.740;22.174;2024-01-25T08:31:59;349.27;;;54.47;;
50350;SDS011;36250;48.740;22.174;2024-01-25T08:34:24;328.98;;;70.05;;
50350;SDS011;36250;48.740;22.174;2024-01-25T08:36:50;354.10;;;58.20;;
50350;SDS011;36250;48.740;22.174;2024-01-25T08:39:15;386.23;;;75.90;;
50350;SDS011;36250;48.740;22.174;2024-01-25T08:41:41;246.70;;;52.72;;
50350;SDS011;36250;48.740;22.174;2024-01-25T08:44:07;225.45;;;49.53;;
50350;SDS011;36250;48.740;22.174;2024-01-25T08:46:33;341.52;;;57.70;;
50350;SDS011;36250;48.740;22.174;2024-01-25T08:48:58;310.83;;;50.03;;
50350;SDS011;36250;48.740;22.174;2024-01-25T08:51:23;203.20;;;49.85;;
50350;SDS011;36250;48.740;22.174;2024-01-25T08:53:49;256.98;;;48.13;;
50350;SDS011;36250;48.740;22.174;2024-01-25T08:56:16;378.38;;;72.75;;
50350;SDS011;36250;48.740;22.174;2024-01-25T08:58:41;346.90;;;52.15;;
50350;SDS011;36250;48.740;22.174;2024-01-25T09:01:07;349.60;;;51.28;;
50350;SDS011;36250;48.740;22.174;2024-01-25T09:03:32;233.52;;;46.22;;
50350;SDS011;36250;48.740;22.174;2024-01-25T09:05:58;226.32;;;44.00;;
50350;SDS011;36250;48.740;22.174;2024-01-25T09:08:23;333.52;;;51.70;;
50350;SDS011;36250;48.740;22.174;2024-01-25T09:10:48;293.27;;;48.28;;
50350;SDS011;36250;48.740;22.174;2024-01-25T09:13:14;399.48;;;68.60;;
50350;SDS011;36250;48.740;22.174;2024-01-25T09:15:40;506.52;;;104.13;;
50350;SDS011;36250;48.740;22.174;2024-01-25T09:18:05;320.85;;;62.33;;
50350;SDS011;36250;48.740;22.174;2024-01-25T09:20:31;328.27;;;68.28;;
50350;SDS011;36250;48.740;22.174;2024-01-25T09:22:56;266.98;;;55.78;;
50350;SDS011;36250;48.740;22.174;2024-01-25T09:25:22;299.33;;;46.42;;
50350;SDS011;36250;48.740;22.174;2024-01-25T09:27:48;289.77;;;50.05;;
50350;SDS011;36250;48.740;22.174;2024-01-25T09:30:13;248.43;;;51.33;;
50350;SDS011;36250;48.740;22.174;2024-01-25T09:32:39;270.13;;;46.42;;
50350;SDS011;36250;48.740;22.174;2024-01-25T09:35:05;209.95;;;42.22;;
50350;SDS011;36250;48.740;22.174;2024-01-25T09:37:30;208.35;;;54.30;;
50350;SDS011;36250;48.740;22.174;2024-01-25T09:39:56;314.98;;;82.32;;
50350;SDS011;36250;48.740;22.174;2024-01-25T09:42:23;265.35;;;56.60;;
50350;SDS011;36250;48.740;22.174;2024-01-25T09:44:49;202.27;;;40.50;;
50350;SDS011;36250;48.740;22.174;2024-01-25T09:47:17;190.18;;;41.38;;
50350;SDS011;36250;48.740;22.174;2024-01-25T09:49:44;334.60;;;50.90;;
50350;SDS011;36250;48.740;22.174;2024-01-25T09:52:10;228.57;;;49.05;;
50350;SDS011;36250;48.740;22.174;2024-01-25T09:54:37;198.05;;;46.20;;
50350;SDS011;36250;48.740;22.174;2024-01-25T09:57:05;312.83;;;53.50;;
50350;SDS011;36250;48.740;22.174;2024-01-25T09:59:37;288.35;;;68.97;;
50350;SDS011;36250;48.740;22.174;2024-01-25T10:02:02;350.23;;;72.65;;
50350;SDS011;36250;48.740;22.174;2024-01-25T10:04:29;200.30;;;53.38;;
50350;SDS011;36250;48.740;22.174;2024-01-25T10:06:58;223.43;;;53.05;;
50350;SDS011;36250;48.740;22.174;2024-01-25T10:09:23;313.42;;;56.65;;
50350;SDS011;36250;48.740;22.174;2024-01-25T10:11:48;240.45;;;54.88;;
50350;SDS011;36250;48.740;22.174;2024-01-25T10:14:14;234.85;;;59.67;;
50350;SDS011;36250;48.740;22.174;2024-01-25T10:16:39;214.27;;;59.58;;
50350;SDS011;36250;48.740;22.174;2024-01-25T10:19:08;203.18;;;58.45;;
50350;SDS011;36250;48.740;22.174;2024-01-25T10:21:35;198.75;;;51.55;;
50350;SDS011;36250;48.740;22.174;2024-01-25T10:24:00;204.02;;;53.40;;
50350;SDS011;36250;48.740;22.174;2024-01-25T10:26:26;173.52;;;49.97;;
50350;SDS011;36250;48.740;22.174;2024-01-25T10:28:53;265.77;;;54.03;;
50350;SDS011;36250;48.740;22.174;2024-01-25T10:31:18;188.02;;;51.35;;
50350;SDS011;36250;48.740;22.174;2024-01-25T10:33:44;171.75;;;54.35;;
50350;SDS011;36250;48.740;22.174;2024-01-25T10:36:10;230.75;;;51.13;;
50350;SDS011;36250;48.740;22.174;2024-01-25T10:38:36;194.43;;;55.20;;
50350;SDS011;36250;48.740;22.174;2024-01-25T10:41:03;196.45;;;49.53;;
50350;SDS011;36250;48.740;22.174;2024-01-25T10:43:30;271.25;;;57.63;;
50350;SDS011;36250;48.740;22.174;2024-01-25T10:45:55;170.20;;;51.03;;
50350;SDS011;36250;48.740;22.174;2024-01-25T10:48:23;195.00;;;52.17;;
50350;SDS011;36250;48.740;22.174;2024-01-25T10:50:55;217.32;;;48.70;;
50350;SDS011;36250;48.740;22.174;2024-01-25T10:53:22;190.68;;;44.67;;
50350;SDS011;36250;48.740;22.174;2024-01-25T10:55:49;189.02;;;49.05;;
50350;SDS011;36250;48.740;22.174;2024-01-25T10:58:15;224.57;;;50.00;;
50350;SDS011;36250;48.740;22.174;2024-01-25T11:00:41;199.15;;;51.60;;
50350;SDS011;36250;48.740;22.174;2024-01-25T11:03:14;216.45;;;50.38;;
50350;SDS011;36250;48.740;22.174;2024-01-25T11:05:39;175.82;;;48.60;;
50350;SDS011;36250;48.740;22.174;2024-01-25T11:08:04;163.60;;;46.65;;
50350;SDS011;36250;48.740;22.174;2024-01-25T11:10:42;197.05;;;53.03;;
50350;SDS011;36250;48.740;22.174;2024-01-25T11:13:13;221.40;;;48.05;;
50350;SDS011;36250;48.740;22.174;2024-01-25T11:15:40;285.48;;;55.67;;
50350;SDS011;36250;48.740;22.174;2024-01-25T11:18:07;313.23;;;57.38;;
50350;SDS011;36250;48.740;22.174;2024-01-25T11:20:34;271.38;;;56.25;;
50350;SDS011;36250;48.740;22.174;2024-01-25T11:23:06;267.85;;;52.55;;
50350;SDS011;36250;48.740;22.174;2024-01-25T11:25:35;361.30;;;56.97;;
50350;SDS011;36250;48.740;22.174;2024-01-25T11:28:01;326.58;;;50.88;;
50350;SDS011;36250;48.740;22.174;2024-01-25T11:30:29;312.88;;;68.03;;
50350;SDS011;36250;48.740;22.174;2024-01-25T11:32:58;352.80;;;60.40;;
50350;SDS011;36250;48.740;22.174;2024-01-25T11:35:24;332.42;;;51.33;;
50350;SDS011;36250;48.740;22.174;2024-01-25T11:37:50;238.73;;;50.67;;
50350;SDS011;36250;48.740;22.174;2024-01-25T11:40:18;363.10;;;54.13;;
50350;SDS011;36250;48.740;22.174;2024-01-25T11:42:45;222.50;;;49.60;;
50350;SDS011;36250;48.740;22.174;2024-01-25T11:45:13;274.42;;;47.90;;
50350;SDS011;36250;48.740;22.174;2024-01-25T11:47:39;200.13;;;47.60;;
50350;SDS011;36250;48.740;22.174;2024-01-25T11:50:06;215.82;;;45.55;;
50350;SDS011;36250;48.740;22.174;2024-01-25T11:52:33;182.95;;;44.35;;
50350;SDS011;36250;48.740;22.174;2024-01-25T11:55:03;175.88;;;43.45;;
50350;SDS011;36250;48.740;22.174;2024-01-25T11:57:30;241.48;;;45.75;;
50350;SDS011;36250;48.740;22.174;2024-01-25T11:59:59;156.10;;;42.40;;
50350;SDS011;36250;48.740;22.174;2024-01-25T12:02:24;191.38;;;50.65;;
50350;SDS011;36250;48.740;22.174;2024-01-25T12:04:51;151.95;;;49.60;;
50350;SDS011;36250;48.740;22.174;2024-01-25T12:07:19;157.88;;;42.70;;
50350;SDS011;36250;48.740;22.174;2024-01-25T12:09:45;129.05;;;39.78;;
50350;SDS011;36250;48.740;22.174;2024-01-25T12:12:22;122.60;;;40.65;;
50350;SDS011;36250;48.740;22.174;2024-01-25T12:14:47;115.50;;;45.03;;
50350;SDS011;36250;48.740;22.174;2024-01-25T12:17:12;143.95;;;46.03;;
50350;SDS011;36250;48.740;22.174;2024-01-25T12:19:38;111.55;;;43.45;;
50350;SDS011;36250;48.740;22.174;2024-01-25T12:22:04;115.68;;;48.10;;
50350;SDS011;36250;48.740;22.174;2024-01-25T12:24:30;104.85;;;42.70;;
50350;SDS011;36250;48.740;22.174;2024-01-25T12:26:56;104.35;;;39.92;;
50350;SDS011;36250;48.740;22.174;2024-01-25T12:29:21;102.40;;;39.22;;
50350;SDS011;36250;48.740;22.174;2024-01-25T12:31:46;91.82;;;35.65;;
50350;SDS011;36250;48.740;22.174;2024-01-25T12:34:15;92.70;;;37.13;;
50350;SDS011;36250;48.740;22.174;2024-01-25T12:36:41;81.82;;;36.20;;
50350;SDS011;36250;48.740;22.174;2024-01-25T12:39:06;86.57;;;36.00;;
50350;SDS011;36250;48.740;22.174;2024-01-25T12:41:31;87.85;;;39.60;;
50350;SDS011;36250;48.740;22.174;2024-01-25T12:43:57;97.70;;;43.50;;
50350;SDS011;36250;48.740;22.174;2024-01-25T12:46:22;94.63;;;40.50;;
50350;SDS011;36250;48.740;22.174;2024-01-25T12:48:48;101.50;;;42.50;;
50350;SDS011;36250;48.740;22.174;2024-01-25T12:51:13;109.78;;;45.00;;
50350;SDS011;36250;48.740;22.174;2024-01-25T12:53:39;108.60;;;46.97;;
50350;SDS011;36250;48.740;22.174;2024-01-25T12:56:04;124.47;;;51.08;;
50350;SDS011;36250;48.740;22.174;2024-01-25T12:58:29;118.03;;;50.28;;
50350;SDS011;36250;48.740;22.174;2024-01-25T13:00:55;124.45;;;53.83;;
50350;SDS011;36250;48.740;22.174;2024-01-25T13:03:20;119.28;;;49.45;;
50350;SDS011;36250;48.740;22.174;2024-01-25T13:05:46;112.07;;;50.10;;
50350;SDS011;36250;48.740;22.174;2024-01-25T13:08:11;101.15;;;40.83;;
50350;SDS011;36250;48.740;22.174;2024-01-25T13:10:37;92.28;;;41.47;;
50350;SDS011;36250;48.740;22.174;2024-01-25T13:13:02;101.18;;;41.58;;
50350;SDS011;36250;48.740;22.174;2024-01-25T13:15:27;106.18;;;40.53;;
50350;SDS011;36250;48.740;22.174;2024-01-25T13:17:53;88.50;;;34.28;;
50350;SDS011;36250;48.740;22.174;2024-01-25T13:20:18;160.20;;;76.45;;
50350;SDS011;36250;48.740;22.174;2024-01-25T13:22:43;109.43;;;52.90;;
50350;SDS011;36250;48.740;22.174;2024-01-25T13:25:09;123.22;;;50.92;;
50350;SDS011;36250;48.740;22.174;2024-01-25T13:27:35;124.40;;;48.03;;
50350;SDS011;36250;48.740;22.174;2024-01-25T13:30:01;114.25;;;50.55;;
50350;SDS011;36250;48.740;22.174;2024-01-25T13:32:26;117.45;;;47.17;;
50350;SDS011;36250;48.740;22.174;2024-01-25T13:34:52;105.35;;;42.08;;
50350;SDS011;36250;48.740;22.174;2024-01-25T13:37:17;108.75;;;42.03;;
50350;SDS011;36250;48.740;22.174;2024-01-25T13:39:43;107.07;;;45.13;;
50350;SDS011;36250;48.740;22.174;2024-01-25T13:42:08;119.40;;;48.25;;
50350;SDS011;36250;48.740;22.174;2024-01-25T13:44:34;101.55;;;44.00;;
50350;SDS011;36250;48.740;22.174;2024-01-25T13:46:59;94.38;;;39.75;;
50350;SDS011;36250;48.740;22.174;2024-01-25T13:49:25;83.63;;;35.53;;
50350;SDS011;36250;48.740;22.174;2024-01-25T13:51:51;83.47;;;36.65;;